createdAt,value
2023-01-06T00:02:14.097Z,6.90
2023-01-06T00:07:18.512Z,7.65
2023-01-06T00:12:20.796Z,7.35
2023-01-06T00:17:23.602Z,7.20
2023-01-06T00:22:27.849Z,7.82
2023-01-06T00:27:31.496Z,8.75
2023-01-06T00:32:33.617Z,8.05
2023-01-06T00:37:38.312Z,9.07
2023-01-06T00:42:41.649Z,9.15
2023-01-06T00:47:44.311Z,8.25
2023-01-06T00:52:47.820Z,7.38
2023-01-06T00:57:52.513Z,6.97
2023-01-06T01:02:54.512Z,7.07
2023-01-06T01:07:59.216Z,6.70
2023-01-06T01:13:00.973Z,5.85
2023-01-06T01:18:03.363Z,6.05
2023-01-06T01:23:07.601Z,5.35
2023-01-06T01:28:09.551Z,5.65
2023-01-06T01:33:11.339Z,4.90
2023-01-06T01:38:14.882Z,5.30
2023-01-06T01:43:17.042Z,4.95
2023-01-06T01:48:27.269Z,5.70
2023-01-06T01:53:34.203Z,6.45
2023-01-06T01:58:38.893Z,6.00
2023-01-06T02:03:42.557Z,6.97
2023-01-06T02:08:51.538Z,7.65
2023-01-06T02:14:01.255Z,7.30
2023-01-06T02:19:17.061Z,7.28
2023-01-06T02:25:11.894Z,7.03
2023-01-06T02:30:41.912Z,7.68
2023-01-06T02:35:58.378Z,8.55
2023-01-06T02:41:15.073Z,9.77
2023-01-06T02:46:27.068Z,24.77
2023-01-06T02:51:36.419Z,34.20
2023-01-06T02:56:43.094Z,29.58
2023-01-06T03:01:49.907Z,24.77
2023-01-06T03:06:56.945Z,17.53
2023-01-06T03:12:03.481Z,12.20
2023-01-06T03:17:05.825Z,21.83
2023-01-06T03:22:09.485Z,19.67
2023-01-06T03:27:12.092Z,19.05
2023-01-06T03:32:20.725Z,19.45
2023-01-06T03:37:31.347Z,25.23
2023-01-06T03:42:38.933Z,16.70
2023-01-06T03:47:52.711Z,17.80
2023-01-06T03:53:01.232Z,28.13
2023-01-06T03:58:07.263Z,20.75
2023-01-06T04:03:12.648Z,29.80
2023-01-06T04:08:15.684Z,38.05
2023-01-06T04:13:17.824Z,30.73
2023-01-06T04:18:20.245Z,33.15
2023-01-06T04:23:24.625Z,33.83
2023-01-06T04:28:26.900Z,25.30
2023-01-06T04:33:29.266Z,34.10
2023-01-06T04:38:32.390Z,20.40
2023-01-06T04:43:34.469Z,27.67
2023-01-06T04:48:37.639Z,21.10
2023-01-06T04:53:53.840Z,21.50
2023-01-06T04:58:57.243Z,21.83
2023-01-06T05:04:00.026Z,22.73
2023-01-06T05:09:03.554Z,22.45
2023-01-06T05:14:05.966Z,24.52
2023-01-06T05:19:07.909Z,23.85
2023-01-06T05:24:12.197Z,21.42
2023-01-06T05:29:16.857Z,17.85
2023-01-06T05:34:20.232Z,22.35
2023-01-06T05:39:24.067Z,18.20
2023-01-06T05:44:25.971Z,21.25
2023-01-06T05:49:28.549Z,23.50
2023-01-06T05:54:31.855Z,18.85
2023-01-06T05:59:33.672Z,21.52
2023-01-06T06:04:36.403Z,16.67
2023-01-06T06:09:40.018Z,15.48
2023-01-06T06:14:42.174Z,14.05
2023-01-06T06:19:44.222Z,18.25
2023-01-06T06:24:49.854Z,16.33
2023-01-06T06:29:53.234Z,11.65
2023-01-06T06:34:55.093Z,14.70
2023-01-06T06:39:58.766Z,8.95
2023-01-06T06:45:00.389Z,15.30
2023-01-06T06:50:02.656Z,15.98
2023-01-06T06:55:06.925Z,16.23
2023-01-06T07:00:10.664Z,20.13
2023-01-06T07:05:14.038Z,16.02
2023-01-06T07:10:17.959Z,12.70
2023-01-06T07:15:20.777Z,16.17
2023-01-06T07:20:22.727Z,24.33
2023-01-06T07:25:26.151Z,17.45
2023-01-06T07:30:29.096Z,17.45
2023-01-06T07:35:33.040Z,23.67
2023-01-06T07:40:39.297Z,17.95
2023-01-06T07:45:41.277Z,18.65
2023-01-06T07:50:43.678Z,19.95
2023-01-06T07:55:53.292Z,19.17
2023-01-06T08:00:54.929Z,15.27
2023-01-06T08:05:58.029Z,24.95
2023-01-06T08:11:01.872Z,14.55
2023-01-06T08:16:05.003Z,17.20
2023-01-06T08:21:08.427Z,13.38
2023-01-06T08:26:13.170Z,15.27
2023-01-06T08:31:17.799Z,15.75
2023-01-06T08:36:22.741Z,19.00
2023-01-06T08:41:25.804Z,36.72
2023-01-06T08:46:28.947Z,21.60
2023-01-06T08:51:32.662Z,13.82
2023-01-06T08:56:35.946Z,17.85
2023-01-06T09:01:39.040Z,19.88
2023-01-06T09:06:43.235Z,34.97
2023-01-06T09:11:47.116Z,28.58
2023-01-06T09:16:48.802Z,24.83
2023-01-06T09:21:50.535Z,32.85
2023-01-06T09:26:54.139Z,25.73
2023-01-06T09:31:56.431Z,21.20
2023-01-06T09:36:58.564Z,28.75
2023-01-06T09:42:26.473Z,17.90
2023-01-06T09:47:32.187Z,9.25
2023-01-06T09:52:40.167Z,5.10
2023-01-06T09:57:49.374Z,9.80
2023-01-06T10:02:52.588Z,11.95
2023-01-06T10:08:01.942Z,6.13
2023-01-06T10:13:17.119Z,4.45
2023-01-06T10:18:32.563Z,3.47
2023-01-06T10:24:17.053Z,2.72
2023-01-06T10:29:31.976Z,6.85
2023-01-06T10:34:34.539Z,2.92
2023-01-06T10:39:38.689Z,3.00
2023-01-06T10:44:42.316Z,4.60
2023-01-06T10:49:46.209Z,2.92
2023-01-06T10:54:49.306Z,2.45
2023-01-06T11:00:17.640Z,2.83
2023-01-06T11:10:29.800Z,3.10
2023-01-06T11:15:42.108Z,3.10
2023-01-06T11:20:44.377Z,2.42
2023-01-06T11:26:02.232Z,2.40
2023-01-06T11:31:08.297Z,2.72
2023-01-06T11:36:14.448Z,2.22
2023-01-06T11:41:27.312Z,2.50
2023-01-06T11:46:31.389Z,2.83
2023-01-06T11:51:47.259Z,2.40
2023-01-06T11:56:59.752Z,2.55
2023-01-06T12:02:03.123Z,2.28
2023-01-06T12:07:17.013Z,4.60
2023-01-06T12:12:21.073Z,1.58
2023-01-06T12:17:43.263Z,1.90
2023-01-06T12:22:47.895Z,2.55
2023-01-06T12:27:54.867Z,2.20
2023-01-06T12:33:07.435Z,1.83
2023-01-06T12:38:20.522Z,4.07
2023-01-06T12:43:23.926Z,9.15
2023-01-06T12:48:39.807Z,1.83
2023-01-06T12:53:47.720Z,1.92
2023-01-06T13:04:46.469Z,1.70
2023-01-06T13:10:00.386Z,1.50
2023-01-06T13:15:10.375Z,1.40
2023-01-06T13:20:21.207Z,1.33
2023-01-06T13:25:36.689Z,1.15
2023-01-06T13:31:01.673Z,2.33
2023-01-06T13:36:26.114Z,2.47
2023-01-06T13:41:32.955Z,7.38
2023-01-06T13:46:35.771Z,1.80
2023-01-06T13:51:42.173Z,2.50
2023-01-06T13:56:43.966Z,1.60
2023-01-06T14:01:45.964Z,1.98
2023-01-06T14:06:49.523Z,1.92
2023-01-06T14:11:51.549Z,1.90
2023-01-06T14:16:54.885Z,2.22
2023-01-06T14:22:15.614Z,3.95
2023-01-06T14:27:56.088Z,2.65
2023-01-06T14:33:05.786Z,2.50
2023-01-06T14:38:33.466Z,2.63
2023-01-06T14:43:46.178Z,2.90
2023-01-06T14:48:56.150Z,2.97
2023-01-06T14:54:03.634Z,2.53
2023-01-06T14:59:12.492Z,3.10
2023-01-06T15:04:25.168Z,3.67
2023-01-06T15:09:29.481Z,3.90
2023-01-06T15:14:35.411Z,3.20
2023-01-06T15:19:37.201Z,3.30
2023-01-06T15:24:42.927Z,3.80
2023-01-06T15:29:51.306Z,3.60
2023-01-06T15:34:55.928Z,4.18
2023-01-06T15:39:58.832Z,5.13
2023-01-06T15:45:02.902Z,4.93
2023-01-06T15:50:08.095Z,8.18
2023-01-06T15:55:24.366Z,4.85
2023-01-06T16:00:29.493Z,4.43
2023-01-06T16:05:42.899Z,7.38
2023-01-06T16:10:49.202Z,7.07
2023-01-06T16:15:55.319Z,7.15
2023-01-06T16:20:58.505Z,5.80
2023-01-06T16:26:08.004Z,13.55
2023-01-06T16:31:12.843Z,3.70
2023-01-06T16:36:17.796Z,5.47
2023-01-06T16:41:21.407Z,6.00
2023-01-06T16:46:26.004Z,5.20
2023-01-06T16:51:30.046Z,6.32
2023-01-06T16:56:37.109Z,3.78
2023-01-06T17:01:39.656Z,4.63
2023-01-06T17:06:44.666Z,4.20
2023-01-06T17:11:49.138Z,5.32
2023-01-06T17:16:52.056Z,3.28
2023-01-06T17:22:02.090Z,4.10
2023-01-06T17:27:20.198Z,3.92
2023-01-06T17:37:29.074Z,10.00
2023-01-06T17:42:33.532Z,8.23
2023-01-06T17:47:45.641Z,5.43
2023-01-06T17:52:49.621Z,3.78
2023-01-06T17:57:58.068Z,5.03
2023-01-06T18:03:03.134Z,4.10
2023-01-06T18:08:13.940Z,4.30
2023-01-06T18:13:21.870Z,4.32
2023-01-06T18:18:27.868Z,4.97
2023-01-06T18:23:34.956Z,5.65
2023-01-06T18:28:38.104Z,6.80
2023-01-06T18:33:39.730Z,5.13
2023-01-06T18:38:42.677Z,6.82
2023-01-06T18:43:47.399Z,13.75
2023-01-06T18:48:51.240Z,22.75
2023-01-06T18:53:53.478Z,14.80
2023-01-06T18:58:59.519Z,20.83
2023-01-06T19:04:05.698Z,9.82
2023-01-06T19:09:21.921Z,12.60
2023-01-06T19:14:27.118Z,11.55
2023-01-06T19:19:36.811Z,9.20
2023-01-06T19:24:43.934Z,8.30
2023-01-06T19:29:48.489Z,9.32
2023-01-06T19:34:51.153Z,7.05
2023-01-06T19:39:57.173Z,6.65
2023-01-06T19:45:17.134Z,7.35
2023-01-06T19:50:22.421Z,6.97
2023-01-06T19:55:26.757Z,7.45
2023-01-06T20:00:47.763Z,7.78
2023-01-06T20:05:49.691Z,7.97
2023-01-06T20:10:52.406Z,9.68
2023-01-06T20:15:55.438Z,8.95
2023-01-06T20:20:58.661Z,8.80
2023-01-06T20:26:06.605Z,9.40
2023-01-06T20:31:10.210Z,17.48
2023-01-06T20:36:13.539Z,9.95
2023-01-06T20:41:15.415Z,9.30
2023-01-06T20:46:19.542Z,9.30
2023-01-06T20:51:21.274Z,15.43
2023-01-06T20:56:23.683Z,10.20
2023-01-06T21:01:26.892Z,10.35
2023-01-06T21:06:28.812Z,10.63
2023-01-06T21:11:32.120Z,9.82
2023-01-06T21:16:35.182Z,10.45
2023-01-06T21:21:37.182Z,13.65
2023-01-06T21:26:39.639Z,19.40
2023-01-06T21:31:43.231Z,12.05
2023-01-06T21:36:46.823Z,11.63
2023-01-06T21:41:49.493Z,16.45
2023-01-06T21:46:52.639Z,12.50
2023-01-06T21:51:55.185Z,11.60
2023-01-06T21:56:57.036Z,10.73
2023-01-06T22:02:02.045Z,11.45
2023-01-06T22:07:06.518Z,11.55
2023-01-06T22:12:11.640Z,11.98
2023-01-06T22:17:15.568Z,11.60
2023-01-06T22:22:17.587Z,12.77
2023-01-06T22:27:19.673Z,14.50
2023-01-06T22:32:24.965Z,13.65
2023-01-06T22:37:27.398Z,13.10
2023-01-06T22:42:30.008Z,13.13
2023-01-06T22:47:36.528Z,14.10
2023-01-06T22:52:39.664Z,17.42
2023-01-06T22:57:41.306Z,15.05
2023-01-06T23:02:44.755Z,16.25
2023-01-06T23:07:49.107Z,16.70
2023-01-06T23:12:52.256Z,17.02
2023-01-06T23:17:55.438Z,18.58
2023-01-06T23:22:58.932Z,20.30
2023-01-06T23:28:01.260Z,16.30
2023-01-06T23:33:05.465Z,18.95
2023-01-06T23:38:07.171Z,16.73
2023-01-06T23:43:08.838Z,17.92
2023-01-06T23:48:13.029Z,17.67
2023-01-06T23:53:16.125Z,17.40
2023-01-06T23:58:18.804Z,19.25
